Laguardia, Spain
Current Conditions -  °F | °C
As of 5:00 PM on Wednesday 28 Jan 2015 (Local Time) from LELO Reporting Station
Broken Clouds Broken Clouds  
Wind Chill: 50°   Ceiling: 6500
Heat Index: 50°   Visibility: 6mi
Dew Point: 41°   Wind: 20mph
Humidity: 71%   Direction: 280°W
Pressure: 30.21"   Gusts: NA
Location:  42.55°N, 2.58°W
Report Text: LELO 281600Z 28017KT 9999 SCT033 BKN065 10/05 Q1023
Loading
Personal Weather Stations






























Interactive Weather Map New forecast layout! Learn more

10-Day Weather Forecast

Advertisements
Track Severe Weather on mobile